Startpagina
METAR-TAF:

METAR-TAF

Vliegvelden :

Perth Airport

Perth, Australië

breedte: 31-56S, lengte: 115-57E, hoogte: 20 m

Actueel weer

Dit bericht is 28 minuten geleden gemaakt, om 08:30 UTC
Wind 15 kt uit het zuidzuidwesten
Temperatuur 14°C
Vochtigheid 58%
Druk 1022 hPa
Zicht 10 km of meer
Weinig wolken op 4000 ft
Verspreide wolken op 5500 ft

METAR: YPPH 230830Z 20015KT 9999 FEW040 SCT055 14/06 Q1022 NOSIG

Tijdstip: 16:58 (08:58 UTC)

Verwachting

Dit bericht is 3 uur en het 43 minuten geleden gemaakt, om 05:15 UTC
Verwachting geldig van 23 om 06 UTC tot 24 om 12 UTC
Wind 14 kt uit het zuidzuidwesten
Zicht 10 km of meer
Gebroken wolken op 3500 ft
lichte regenbuien
Van 23 om 1300 UTC
Wind 5 kt uit het zuidoosten
Zicht 10 km of meer
geen wolken onder 1500 m en geen cumulonimbus
Van 24 om 0200 UTC
Wind 8 kt uit het oosten
Zicht 10 km of meer
geen wolken onder 1500 m en geen cumulonimbus

TAF: YPPH 230515Z 2306/2412 21014KT 9999 -SHRA BKN035 FM231300 14005KT CAVOK FM240200 09008KT CAVOK

Waarnemingen en weersverwachtingen van meer dan 4000 vliegvelden (METAR en TAF).

De beschikbare stations zijn de gele en rode punten op de kaart.

Ga met uw muis naar het station om de naam te zien.

Klik dan om waarnemingen en weersverwachtingen te zien.

kaart wijzigen: klik op de groene knoppen met een zwart kruis om in te zoomen, op de groene knop met een streepje om uit te zoomen of op de groene pijlen voor aangrenzende kaarten.


METAR-TAF: